sensor_id;sensor_type;location;lat;lon;timestamp;P1;durP1;ratioP1;P2;durP2;ratioP2
72601;SDS011;60644;55.858;37.390;2023-04-23T00:00:39;24.10;;;10.80;;
72601;SDS011;60644;55.858;37.390;2023-04-23T00:03:06;24.40;;;10.70;;
72601;SDS011;60644;55.858;37.390;2023-04-23T00:05:37;24.00;;;10.37;;
72601;SDS011;60644;55.858;37.390;2023-04-23T00:08:06;26.33;;;9.98;;
72601;SDS011;60644;55.858;37.390;2023-04-23T00:10:32;24.48;;;10.57;;
72601;SDS011;60644;55.858;37.390;2023-04-23T00:12:58;23.58;;;9.75;;
72601;SDS011;60644;55.858;37.390;2023-04-23T00:15:25;26.42;;;9.75;;
72601;SDS011;60644;55.858;37.390;2023-04-23T00:17:51;22.60;;;10.40;;
72601;SDS011;60644;55.858;37.390;2023-04-23T00:20:16;25.85;;;10.57;;
72601;SDS011;60644;55.858;37.390;2023-04-23T00:22:42;24.60;;;11.35;;
72601;SDS011;60644;55.858;37.390;2023-04-23T00:25:08;26.23;;;10.43;;
72601;SDS011;60644;55.858;37.390;2023-04-23T00:27:34;25.00;;;10.32;;
72601;SDS011;60644;55.858;37.390;2023-04-23T00:30:00;21.27;;;9.60;;
72601;SDS011;60644;55.858;37.390;2023-04-23T00:32:34;23.10;;;9.75;;
72601;SDS011;60644;55.858;37.390;2023-04-23T00:35:00;23.55;;;10.85;;
72601;SDS011;60644;55.858;37.390;2023-04-23T00:37:26;20.83;;;9.33;;
72601;SDS011;60644;55.858;37.390;2023-04-23T00:39:52;24.38;;;11.48;;
72601;SDS011;60644;55.858;37.390;2023-04-23T00:42:17;26.10;;;10.00;;
72601;SDS011;60644;55.858;37.390;2023-04-23T00:44:43;23.55;;;9.80;;
72601;SDS011;60644;55.858;37.390;2023-04-23T00:47:10;22.70;;;10.25;;
72601;SDS011;60644;55.858;37.390;2023-04-23T00:49:37;19.80;;;8.10;;
72601;SDS011;60644;55.858;37.390;2023-04-23T00:52:04;24.35;;;10.15;;
72601;SDS011;60644;55.858;37.390;2023-04-23T00:54:30;21.83;;;10.18;;
72601;SDS011;60644;55.858;37.390;2023-04-23T00:56:56;21.85;;;9.80;;
72601;SDS011;60644;55.858;37.390;2023-04-23T00:59:26;19.80;;;10.35;;
72601;SDS011;60644;55.858;37.390;2023-04-23T01:01:52;21.87;;;9.93;;
72601;SDS011;60644;55.858;37.390;2023-04-23T01:04:18;22.02;;;10.43;;
72601;SDS011;60644;55.858;37.390;2023-04-23T01:06:45;23.75;;;10.73;;
72601;SDS011;60644;55.858;37.390;2023-04-23T01:09:12;22.98;;;10.63;;
72601;SDS011;60644;55.858;37.390;2023-04-23T01:11:39;22.77;;;10.90;;
72601;SDS011;60644;55.858;37.390;2023-04-23T01:14:07;31.38;;;11.68;;
72601;SDS011;60644;55.858;37.390;2023-04-23T01:16:33;22.50;;;10.50;;
72601;SDS011;60644;55.858;37.390;2023-04-23T01:18:59;22.42;;;11.98;;
72601;SDS011;60644;55.858;37.390;2023-04-23T01:21:27;23.15;;;11.75;;
72601;SDS011;60644;55.858;37.390;2023-04-23T01:23:53;24.88;;;10.95;;
72601;SDS011;60644;55.858;37.390;2023-04-23T01:26:20;22.75;;;12.02;;
72601;SDS011;60644;55.858;37.390;2023-04-23T01:28:48;21.70;;;10.50;;
72601;SDS011;60644;55.858;37.390;2023-04-23T01:31:13;22.55;;;10.32;;
72601;SDS011;60644;55.858;37.390;2023-04-23T01:33:42;23.50;;;9.73;;
72601;SDS011;60644;55.858;37.390;2023-04-23T01:36:07;21.48;;;10.05;;
72601;SDS011;60644;55.858;37.390;2023-04-23T01:38:34;21.88;;;9.27;;
72601;SDS011;60644;55.858;37.390;2023-04-23T01:41:00;22.77;;;10.35;;
72601;SDS011;60644;55.858;37.390;2023-04-23T01:43:26;23.43;;;10.60;;
72601;SDS011;60644;55.858;37.390;2023-04-23T01:45:53;25.33;;;10.40;;
72601;SDS011;60644;55.858;37.390;2023-04-23T01:48:18;20.58;;;10.68;;
72601;SDS011;60644;55.858;37.390;2023-04-23T01:50:44;23.50;;;10.87;;
72601;SDS011;60644;55.858;37.390;2023-04-23T01:53:10;20.77;;;10.38;;
72601;SDS011;60644;55.858;37.390;2023-04-23T01:55:37;22.60;;;10.40;;
72601;SDS011;60644;55.858;37.390;2023-04-23T01:58:03;24.27;;;9.55;;
72601;SDS011;60644;55.858;37.390;2023-04-23T02:00:30;22.13;;;9.15;;
72601;SDS011;60644;55.858;37.390;2023-04-23T02:02:55;21.07;;;9.73;;
72601;SDS011;60644;55.858;37.390;2023-04-23T02:05:21;22.35;;;9.45;;
72601;SDS011;60644;55.858;37.390;2023-04-23T02:07:47;21.50;;;9.30;;
72601;SDS011;60644;55.858;37.390;2023-04-23T02:10:14;21.40;;;9.02;;
72601;SDS011;60644;55.858;37.390;2023-04-23T02:12:40;19.70;;;9.52;;
72601;SDS011;60644;55.858;37.390;2023-04-23T02:15:09;18.38;;;8.50;;
72601;SDS011;60644;55.858;37.390;2023-04-23T02:17:55;20.55;;;9.55;;
72601;SDS011;60644;55.858;37.390;2023-04-23T02:20:21;19.08;;;8.05;;
72601;SDS011;60644;55.858;37.390;2023-04-23T02:22:47;19.55;;;8.93;;
72601;SDS011;60644;55.858;37.390;2023-04-23T02:25:14;19.73;;;8.93;;
72601;SDS011;60644;55.858;37.390;2023-04-23T02:27:40;20.65;;;8.68;;
72601;SDS011;60644;55.858;37.390;2023-04-23T02:30:07;19.15;;;8.82;;
72601;SDS011;60644;55.858;37.390;2023-04-23T02:32:34;20.48;;;9.18;;
72601;SDS011;60644;55.858;37.390;2023-04-23T02:35:00;25.77;;;10.32;;
72601;SDS011;60644;55.858;37.390;2023-04-23T02:37:26;19.13;;;9.60;;
72601;SDS011;60644;55.858;37.390;2023-04-23T02:39:52;26.83;;;11.13;;
72601;SDS011;60644;55.858;37.390;2023-04-23T02:42:18;19.45;;;9.02;;
72601;SDS011;60644;55.858;37.390;2023-04-23T02:44:44;22.33;;;10.00;;
72601;SDS011;60644;55.858;37.390;2023-04-23T02:47:09;19.83;;;9.00;;
72601;SDS011;60644;55.858;37.390;2023-04-23T02:49:35;20.37;;;9.47;;
72601;SDS011;60644;55.858;37.390;2023-04-23T02:52:00;17.73;;;8.70;;
72601;SDS011;60644;55.858;37.390;2023-04-23T02:54:26;15.67;;;9.47;;
72601;SDS011;60644;55.858;37.390;2023-04-23T02:56:52;17.63;;;8.82;;
72601;SDS011;60644;55.858;37.390;2023-04-23T02:59:17;23.43;;;10.47;;
72601;SDS011;60644;55.858;37.390;2023-04-23T03:01:43;20.52;;;8.38;;
72601;SDS011;60644;55.858;37.390;2023-04-23T03:04:10;20.97;;;8.50;;
72601;SDS011;60644;55.858;37.390;2023-04-23T03:06:37;20.27;;;9.13;;
72601;SDS011;60644;55.858;37.390;2023-04-23T03:09:02;21.38;;;9.82;;
72601;SDS011;60644;55.858;37.390;2023-04-23T03:11:30;21.15;;;9.63;;
72601;SDS011;60644;55.858;37.390;2023-04-23T03:13:57;23.35;;;9.65;;
72601;SDS011;60644;55.858;37.390;2023-04-23T03:16:23;17.83;;;8.60;;
72601;SDS011;60644;55.858;37.390;2023-04-23T03:18:48;20.07;;;8.50;;
72601;SDS011;60644;55.858;37.390;2023-04-23T03:21:15;18.95;;;8.48;;
72601;SDS011;60644;55.858;37.390;2023-04-23T03:23:40;15.52;;;8.57;;
72601;SDS011;60644;55.858;37.390;2023-04-23T03:26:06;18.70;;;9.53;;
72601;SDS011;60644;55.858;37.390;2023-04-23T03:28:32;17.17;;;8.80;;
72601;SDS011;60644;55.858;37.390;2023-04-23T03:30:58;19.40;;;8.53;;
72601;SDS011;60644;55.858;37.390;2023-04-23T03:33:23;19.67;;;8.75;;
72601;SDS011;60644;55.858;37.390;2023-04-23T03:35:49;19.93;;;9.10;;
72601;SDS011;60644;55.858;37.390;2023-04-23T03:38:19;17.45;;;8.95;;
72601;SDS011;60644;55.858;37.390;2023-04-23T03:40:46;21.50;;;8.98;;
72601;SDS011;60644;55.858;37.390;2023-04-23T03:43:11;18.30;;;9.00;;
72601;SDS011;60644;55.858;37.390;2023-04-23T03:46:03;18.80;;;8.82;;
72601;SDS011;60644;55.858;37.390;2023-04-23T03:48:32;18.88;;;8.75;;
72601;SDS011;60644;55.858;37.390;2023-04-23T03:51:01;19.13;;;9.95;;
72601;SDS011;60644;55.858;37.390;2023-04-23T03:53:38;20.35;;;9.80;;
72601;SDS011;60644;55.858;37.390;2023-04-23T03:56:30;17.42;;;9.38;;
72601;SDS011;60644;55.858;37.390;2023-04-23T03:59:14;17.23;;;9.52;;
72601;SDS011;60644;55.858;37.390;2023-04-23T04:01:41;19.67;;;10.18;;
72601;SDS011;60644;55.858;37.390;2023-04-23T04:04:07;24.92;;;9.20;;
72601;SDS011;60644;55.858;37.390;2023-04-23T04:06:33;19.57;;;9.33;;
72601;SDS011;60644;55.858;37.390;2023-04-23T04:08:59;19.20;;;10.30;;
72601;SDS011;60644;55.858;37.390;2023-04-23T04:11:25;22.40;;;10.45;;
72601;SDS011;60644;55.858;37.390;2023-04-23T04:13:51;18.30;;;9.93;;
72601;SDS011;60644;55.858;37.390;2023-04-23T04:16:17;19.23;;;9.80;;
72601;SDS011;60644;55.858;37.390;2023-04-23T04:18:42;21.80;;;9.87;;
72601;SDS011;60644;55.858;37.390;2023-04-23T04:21:08;20.05;;;10.75;;
72601;SDS011;60644;55.858;37.390;2023-04-23T04:23:33;19.08;;;9.52;;
72601;SDS011;60644;55.858;37.390;2023-04-23T04:26:00;27.73;;;11.48;;
72601;SDS011;60644;55.858;37.390;2023-04-23T04:28:27;20.17;;;10.32;;
72601;SDS011;60644;55.858;37.390;2023-04-23T04:30:53;23.00;;;10.30;;
72601;SDS011;60644;55.858;37.390;2023-04-23T04:33:19;18.30;;;10.38;;
72601;SDS011;60644;55.858;37.390;2023-04-23T04:35:45;23.02;;;9.88;;
72601;SDS011;60644;55.858;37.390;2023-04-23T04:38:13;20.05;;;10.38;;
72601;SDS011;60644;55.858;37.390;2023-04-23T04:40:40;17.80;;;10.02;;
72601;SDS011;60644;55.858;37.390;2023-04-23T04:43:06;21.17;;;11.43;;
72601;SDS011;60644;55.858;37.390;2023-04-23T04:45:32;21.80;;;10.52;;
72601;SDS011;60644;55.858;37.390;2023-04-23T04:47:57;17.70;;;10.10;;
72601;SDS011;60644;55.858;37.390;2023-04-23T04:50:23;21.38;;;10.02;;
72601;SDS011;60644;55.858;37.390;2023-04-23T04:52:49;23.00;;;11.37;;
72601;SDS011;60644;55.858;37.390;2023-04-23T04:55:14;23.67;;;10.60;;
72601;SDS011;60644;55.858;37.390;2023-04-23T04:57:43;19.52;;;10.32;;
72601;SDS011;60644;55.858;37.390;2023-04-23T05:00:25;22.27;;;10.70;;
72601;SDS011;60644;55.858;37.390;2023-04-23T05:02:54;21.27;;;10.77;;
72601;SDS011;60644;55.858;37.390;2023-04-23T05:05:20;26.20;;;11.37;;
72601;SDS011;60644;55.858;37.390;2023-04-23T05:07:46;17.75;;;10.07;;
72601;SDS011;60644;55.858;37.390;2023-04-23T05:10:13;19.10;;;10.70;;
72601;SDS011;60644;55.858;37.390;2023-04-23T05:12:39;20.83;;;10.77;;
72601;SDS011;60644;55.858;37.390;2023-04-23T05:15:08;24.13;;;11.13;;
72601;SDS011;60644;55.858;37.390;2023-04-23T05:17:35;18.55;;;9.85;;
72601;SDS011;60644;55.858;37.390;2023-04-23T05:20:01;24.05;;;11.52;;
72601;SDS011;60644;55.858;37.390;2023-04-23T05:22:30;18.48;;;9.73;;
72601;SDS011;60644;55.858;37.390;2023-04-23T05:24:57;24.17;;;10.63;;
72601;SDS011;60644;55.858;37.390;2023-04-23T05:27:23;21.13;;;9.77;;
72601;SDS011;60644;55.858;37.390;2023-04-23T05:29:49;17.05;;;9.70;;
72601;SDS011;60644;55.858;37.390;2023-04-23T05:32:15;19.20;;;10.13;;
72601;SDS011;60644;55.858;37.390;2023-04-23T05:34:40;20.42;;;10.13;;
72601;SDS011;60644;55.858;37.390;2023-04-23T05:37:06;18.47;;;10.27;;
72601;SDS011;60644;55.858;37.390;2023-04-23T05:39:31;19.90;;;9.90;;
72601;SDS011;60644;55.858;37.390;2023-04-23T05:41:57;24.50;;;11.17;;
72601;SDS011;60644;55.858;37.390;2023-04-23T05:44:23;19.53;;;9.67;;
72601;SDS011;60644;55.858;37.390;2023-04-23T05:46:48;17.17;;;9.82;;
72601;SDS011;60644;55.858;37.390;2023-04-23T05:49:14;19.88;;;9.93;;
72601;SDS011;60644;55.858;37.390;2023-04-23T05:51:40;23.20;;;9.90;;
72601;SDS011;60644;55.858;37.390;2023-04-23T05:54:06;18.75;;;9.40;;
72601;SDS011;60644;55.858;37.390;2023-04-23T05:56:31;18.97;;;10.37;;
72601;SDS011;60644;55.858;37.390;2023-04-23T05:58:57;19.50;;;9.50;;
72601;SDS011;60644;55.858;37.390;2023-04-23T06:01:23;17.17;;;9.90;;
72601;SDS011;60644;55.858;37.390;2023-04-23T06:03:49;17.10;;;9.10;;
72601;SDS011;60644;55.858;37.390;2023-04-23T06:06:15;23.08;;;9.73;;
72601;SDS011;60644;55.858;37.390;2023-04-23T06:08:41;19.33;;;10.17;;
72601;SDS011;60644;55.858;37.390;2023-04-23T06:11:06;22.15;;;10.13;;
72601;SDS011;60644;55.858;37.390;2023-04-23T06:13:35;18.47;;;10.23;;
72601;SDS011;60644;55.858;37.390;2023-04-23T06:16:07;18.48;;;9.75;;
72601;SDS011;60644;55.858;37.390;2023-04-23T06:18:33;24.38;;;11.00;;
72601;SDS011;60644;55.858;37.390;2023-04-23T06:21:00;19.92;;;10.90;;
72601;SDS011;60644;55.858;37.390;2023-04-23T06:23:29;22.13;;;11.05;;
72601;SDS011;60644;55.858;37.390;2023-04-23T06:25:55;22.80;;;11.73;;
72601;SDS011;60644;55.858;37.390;2023-04-23T06:28:21;21.73;;;10.73;;
72601;SDS011;60644;55.858;37.390;2023-04-23T06:31:12;27.60;;;13.30;;
72601;SDS011;60644;55.858;37.390;2023-04-23T06:33:38;22.70;;;12.50;;
72601;SDS011;60644;55.858;37.390;2023-04-23T06:36:04;20.42;;;11.02;;
72601;SDS011;60644;55.858;37.390;2023-04-23T06:38:30;22.13;;;10.50;;
72601;SDS011;60644;55.858;37.390;2023-04-23T06:40:55;20.20;;;10.93;;
72601;SDS011;60644;55.858;37.390;2023-04-23T06:43:21;23.10;;;9.97;;
72601;SDS011;60644;55.858;37.390;2023-04-23T06:46:13;22.63;;;10.23;;
72601;SDS011;60644;55.858;37.390;2023-04-23T06:48:39;15.20;;;9.45;;
72601;SDS011;60644;55.858;37.390;2023-04-23T06:51:05;22.37;;;10.30;;
72601;SDS011;60644;55.858;37.390;2023-04-23T06:53:31;23.48;;;11.48;;
72601;SDS011;60644;55.858;37.390;2023-04-23T06:55:56;20.73;;;10.77;;
72601;SDS011;60644;55.858;37.390;2023-04-23T06:58:22;20.33;;;10.75;;
72601;SDS011;60644;55.858;37.390;2023-04-23T07:00:55;22.08;;;11.52;;
72601;SDS011;60644;55.858;37.390;2023-04-23T07:03:21;17.05;;;10.43;;
72601;SDS011;60644;55.858;37.390;2023-04-23T07:05:47;20.23;;;10.17;;
72601;SDS011;60644;55.858;37.390;2023-04-23T07:08:12;19.27;;;10.57;;
72601;SDS011;60644;55.858;37.390;2023-04-23T07:10:39;18.35;;;10.35;;
72601;SDS011;60644;55.858;37.390;2023-04-23T07:13:04;16.77;;;10.23;;
72601;SDS011;60644;55.858;37.390;2023-04-23T07:15:30;19.55;;;9.63;;
72601;SDS011;60644;55.858;37.390;2023-04-23T07:17:56;23.30;;;10.93;;
72601;SDS011;60644;55.858;37.390;2023-04-23T07:20:22;18.90;;;9.90;;
72601;SDS011;60644;55.858;37.390;2023-04-23T07:22:47;22.00;;;10.30;;
72601;SDS011;60644;55.858;37.390;2023-04-23T07:25:14;17.60;;;9.57;;
72601;SDS011;60644;55.858;37.390;2023-04-23T07:27:40;16.58;;;7.97;;
72601;SDS011;60644;55.858;37.390;2023-04-23T07:30:08;18.10;;;8.77;;
72601;SDS011;60644;55.858;37.390;2023-04-23T07:32:34;17.20;;;7.87;;
72601;SDS011;60644;55.858;37.390;2023-04-23T07:35:00;15.63;;;8.13;;
72601;SDS011;60644;55.858;37.390;2023-04-23T07:37:26;14.60;;;7.38;;
72601;SDS011;60644;55.858;37.390;2023-04-23T07:39:54;14.13;;;6.60;;
72601;SDS011;60644;55.858;37.390;2023-04-23T07:42:20;22.95;;;9.25;;
72601;SDS011;60644;55.858;37.390;2023-04-23T07:44:46;17.10;;;8.40;;
72601;SDS011;60644;55.858;37.390;2023-04-23T07:47:11;16.30;;;7.60;;
72601;SDS011;60644;55.858;37.390;2023-04-23T07:49:37;21.67;;;8.13;;
72601;SDS011;60644;55.858;37.390;2023-04-23T07:52:03;11.90;;;5.75;;
72601;SDS011;60644;55.858;37.390;2023-04-23T07:54:28;12.50;;;5.93;;
72601;SDS011;60644;55.858;37.390;2023-04-23T07:56:54;10.85;;;4.50;;
72601;SDS011;60644;55.858;37.390;2023-04-23T07:59:21;7.30;;;2.97;;
72601;SDS011;60644;55.858;37.390;2023-04-23T08:01:47;12.03;;;3.90;;
72601;SDS011;60644;55.858;37.390;2023-04-23T08:04:13;11.80;;;4.50;;
72601;SDS011;60644;55.858;37.390;2023-04-23T08:06:39;7.97;;;3.00;;
72601;SDS011;60644;55.858;37.390;2023-04-23T08:09:04;11.40;;;3.13;;
72601;SDS011;60644;55.858;37.390;2023-04-23T08:11:31;7.38;;;2.80;;
72601;SDS011;60644;55.858;37.390;2023-04-23T08:13:57;10.13;;;3.05;;
72601;SDS011;60644;55.858;37.390;2023-04-23T08:16:23;7.33;;;2.20;;
72601;SDS011;60644;55.858;37.390;2023-04-23T08:18:49;12.98;;;2.65;;
72601;SDS011;60644;55.858;37.390;2023-04-23T08:21:19;6.53;;;1.30;;
72601;SDS011;60644;55.858;37.390;2023-04-23T08:23:45;3.88;;;0.90;;
72601;SDS011;60644;55.858;37.390;2023-04-23T08:26:11;5.13;;;1.63;;
72601;SDS011;60644;55.858;37.390;2023-04-23T08:28:37;6.35;;;1.45;;
72601;SDS011;60644;55.858;37.390;2023-04-23T08:31:03;5.40;;;1.15;;
72601;SDS011;60644;55.858;37.390;2023-04-23T08:33:29;4.03;;;0.88;;
72601;SDS011;60644;55.858;37.390;2023-04-23T08:35:55;3.97;;;0.83;;
72601;SDS011;60644;55.858;37.390;2023-04-23T08:38:21;3.63;;;0.60;;
72601;SDS011;60644;55.858;37.390;2023-04-23T08:40:46;4.07;;;0.80;;
72601;SDS011;60644;55.858;37.390;2023-04-23T08:43:20;3.60;;;0.60;;
72601;SDS011;60644;55.858;37.390;2023-04-23T08:45:49;4.38;;;0.80;;
72601;SDS011;60644;55.858;37.390;2023-04-23T08:48:14;3.88;;;0.65;;
72601;SDS011;60644;55.858;37.390;2023-04-23T08:50:43;6.10;;;0.70;;
72601;SDS011;60644;55.858;37.390;2023-04-23T08:53:09;4.82;;;0.75;;
72601;SDS011;60644;55.858;37.390;2023-04-23T08:55:35;2.88;;;0.60;;
72601;SDS011;60644;55.858;37.390;2023-04-23T08:58:01;3.80;;;0.90;;
72601;SDS011;60644;55.858;37.390;2023-04-23T09:00:28;6.07;;;0.73;;
72601;SDS011;60644;55.858;37.390;2023-04-23T09:02:58;4.28;;;0.85;;
72601;SDS011;60644;55.858;37.390;2023-04-23T09:05:23;6.40;;;1.10;;
72601;SDS011;60644;55.858;37.390;2023-04-23T09:07:52;5.67;;;0.80;;
72601;SDS011;60644;55.858;37.390;2023-04-23T09:10:18;4.97;;;0.63;;
72601;SDS011;60644;55.858;37.390;2023-04-23T09:12:45;4.55;;;0.90;;
72601;SDS011;60644;55.858;37.390;2023-04-23T09:15:12;3.33;;;0.80;;
72601;SDS011;60644;55.858;37.390;2023-04-23T09:17:42;3.85;;;0.85;;
72601;SDS011;60644;55.858;37.390;2023-04-23T09:20:08;4.13;;;1.10;;
72601;SDS011;60644;55.858;37.390;2023-04-23T09:25:07;4.38;;;0.77;;
72601;SDS011;60644;55.858;37.390;2023-04-23T09:27:34;3.80;;;0.70;;
72601;SDS011;60644;55.858;37.390;2023-04-23T09:30:02;3.55;;;1.25;;
72601;SDS011;60644;55.858;37.390;2023-04-23T09:32:30;3.30;;;0.70;;
72601;SDS011;60644;55.858;37.390;2023-04-23T09:34:57;6.05;;;2.40;;
72601;SDS011;60644;55.858;37.390;2023-04-23T09:37:26;4.75;;;1.10;;
72601;SDS011;60644;55.858;37.390;2023-04-23T09:39:57;7.07;;;1.20;;
72601;SDS011;60644;55.858;37.390;2023-04-23T09:42:23;3.40;;;0.90;;
72601;SDS011;60644;55.858;37.390;2023-04-23T09:44:54;3.47;;;0.65;;
72601;SDS011;60644;55.858;37.390;2023-04-23T09:47:22;6.00;;;1.30;;
72601;SDS011;60644;55.858;37.390;2023-04-23T09:49:48;3.57;;;0.70;;
72601;SDS011;60644;55.858;37.390;2023-04-23T09:52:14;5.25;;;0.90;;
72601;SDS011;60644;55.858;37.390;2023-04-23T09:54:40;4.55;;;1.13;;
72601;SDS011;60644;55.858;37.390;2023-04-23T09:57:06;4.57;;;0.80;;
72601;SDS011;60644;55.858;37.390;2023-04-23T09:59:34;4.80;;;1.20;;
72601;SDS011;60644;55.858;37.390;2023-04-23T10:02:06;4.33;;;0.90;;
72601;SDS011;60644;55.858;37.390;2023-04-23T10:04:32;4.32;;;0.88;;
72601;SDS011;60644;55.858;37.390;2023-04-23T10:06:59;3.65;;;0.90;;
72601;SDS011;60644;55.858;37.390;2023-04-23T10:09:26;3.22;;;0.90;;
72601;SDS011;60644;55.858;37.390;2023-04-23T10:11:53;5.30;;;0.80;;
72601;SDS011;60644;55.858;37.390;2023-04-23T10:14:20;4.07;;;1.00;;
72601;SDS011;60644;55.858;37.390;2023-04-23T10:16:46;3.90;;;0.80;;
72601;SDS011;60644;55.858;37.390;2023-04-23T10:19:16;3.03;;;0.50;;
72601;SDS011;60644;55.858;37.390;2023-04-23T10:21:42;4.03;;;0.98;;
72601;SDS011;60644;55.858;37.390;2023-04-23T10:24:09;3.60;;;0.63;;
72601;SDS011;60644;55.858;37.390;2023-04-23T10:26:38;4.20;;;0.90;;
72601;SDS011;60644;55.858;37.390;2023-04-23T10:29:08;3.25;;;0.80;;
72601;SDS011;60644;55.858;37.390;2023-04-23T10:31:36;4.70;;;0.80;;
72601;SDS011;60644;55.858;37.390;2023-04-23T10:34:03;4.60;;;0.63;;
72601;SDS011;60644;55.858;37.390;2023-04-23T10:36:33;3.30;;;0.80;;
72601;SDS011;60644;55.858;37.390;2023-04-23T10:38:59;4.10;;;1.00;;
72601;SDS011;60644;55.858;37.390;2023-04-23T10:41:35;4.00;;;1.00;;
72601;SDS011;60644;55.858;37.390;2023-04-23T10:44:02;5.95;;;0.77;;
72601;SDS011;60644;55.858;37.390;2023-04-23T10:46:31;3.53;;;0.90;;
72601;SDS011;60644;55.858;37.390;2023-04-23T10:49:10;4.85;;;0.80;;
72601;SDS011;60644;55.858;37.390;2023-04-23T10:51:38;3.60;;;0.70;;
72601;SDS011;60644;55.858;37.390;2023-04-23T10:54:05;4.45;;;0.80;;
72601;SDS011;60644;55.858;37.390;2023-04-23T10:56:31;7.53;;;1.00;;
72601;SDS011;60644;55.858;37.390;2023-04-23T10:58:57;3.28;;;0.60;;
72601;SDS011;60644;55.858;37.390;2023-04-23T11:01:24;3.53;;;0.83;;
72601;SDS011;60644;55.858;37.390;2023-04-23T11:03:50;5.50;;;1.08;;
72601;SDS011;60644;55.858;37.390;2023-04-23T11:11:54;4.60;;;0.90;;
72601;SDS011;60644;55.858;37.390;2023-04-23T11:14:34;5.32;;;1.10;;
72601;SDS011;60644;55.858;37.390;2023-04-23T11:17:03;4.95;;;1.10;;
72601;SDS011;60644;55.858;37.390;2023-04-23T11:19:30;4.57;;;1.20;;
72601;SDS011;60644;55.858;37.390;2023-04-23T11:24:23;6.17;;;1.20;;
72601;SDS011;60644;55.858;37.390;2023-04-23T11:26:50;8.80;;;1.20;;
72601;SDS011;60644;55.858;37.390;2023-04-23T11:29:18;5.97;;;1.40;;
72601;SDS011;60644;55.858;37.390;2023-04-23T11:31:46;5.88;;;1.70;;
72601;SDS011;60644;55.858;37.390;2023-04-23T11:34:12;4.53;;;1.00;;
72601;SDS011;60644;55.858;37.390;2023-04-23T11:36:38;3.70;;;1.20;;
72601;SDS011;60644;55.858;37.390;2023-04-23T11:39:04;5.13;;;1.27;;
72601;SDS011;60644;55.858;37.390;2023-04-23T11:41:32;5.00;;;0.90;;
72601;SDS011;60644;55.858;37.390;2023-04-23T11:43:57;3.60;;;1.10;;
72601;SDS011;60644;55.858;37.390;2023-04-23T11:46:24;3.70;;;1.10;;
72601;SDS011;60644;55.858;37.390;2023-04-23T11:48:50;5.53;;;1.65;;
72601;SDS011;60644;55.858;37.390;2023-04-23T11:51:16;4.50;;;1.10;;
72601;SDS011;60644;55.858;37.390;2023-04-23T11:53:45;3.33;;;1.20;;
72601;SDS011;60644;55.858;37.390;2023-04-23T11:56:11;6.43;;;1.38;;
72601;SDS011;60644;55.858;37.390;2023-04-23T11:58:37;5.07;;;1.30;;
72601;SDS011;60644;55.858;37.390;2023-04-23T12:01:02;5.10;;;1.50;;
72601;SDS011;60644;55.858;37.390;2023-04-23T12:03:31;5.53;;;1.40;;
72601;SDS011;60644;55.858;37.390;2023-04-23T12:05:57;5.10;;;1.52;;
72601;SDS011;60644;55.858;37.390;2023-04-23T12:08:23;7.47;;;1.20;;
72601;SDS011;60644;55.858;37.390;2023-04-23T12:10:53;5.57;;;1.50;;
72601;SDS011;60644;55.858;37.390;2023-04-23T12:13:23;5.13;;;1.10;;
72601;SDS011;60644;55.858;37.390;2023-04-23T12:15:51;4.10;;;0.90;;
72601;SDS011;60644;55.858;37.390;2023-04-23T12:18:18;3.45;;;0.88;;
72601;SDS011;60644;55.858;37.390;2023-04-23T12:20:44;4.10;;;1.02;;
72601;SDS011;60644;55.858;37.390;2023-04-23T12:23:10;4.30;;;1.20;;
72601;SDS011;60644;55.858;37.390;2023-04-23T12:25:38;4.37;;;1.40;;
72601;SDS011;60644;55.858;37.390;2023-04-23T12:28:05;5.30;;;1.40;;
72601;SDS011;60644;55.858;37.390;2023-04-23T12:30:32;4.97;;;1.30;;
72601;SDS011;60644;55.858;37.390;2023-04-23T12:33:01;3.75;;;1.52;;
72601;SDS011;60644;55.858;37.390;2023-04-23T12:35:40;4.23;;;1.37;;
72601;SDS011;60644;55.858;37.390;2023-04-23T12:38:06;5.25;;;2.10;;
72601;SDS011;60644;55.858;37.390;2023-04-23T12:40:32;6.85;;;1.60;;
72601;SDS011;60644;55.858;37.390;2023-04-23T12:42:58;4.32;;;1.40;;
72601;SDS011;60644;55.858;37.390;2023-04-23T12:45:24;6.97;;;1.70;;
72601;SDS011;60644;55.858;37.390;2023-04-23T12:47:58;5.05;;;1.48;;
72601;SDS011;60644;55.858;37.390;2023-04-23T12:50:24;4.25;;;1.40;;
72601;SDS011;60644;55.858;37.390;2023-04-23T12:52:52;7.18;;;1.20;;
72601;SDS011;60644;55.858;37.390;2023-04-23T12:55:18;6.60;;;1.63;;
72601;SDS011;60644;55.858;37.390;2023-04-23T12:57:44;4.88;;;1.50;;
72601;SDS011;60644;55.858;37.390;2023-04-23T13:00:10;4.47;;;1.20;;
72601;SDS011;60644;55.858;37.390;2023-04-23T13:02:37;5.70;;;1.00;;
72601;SDS011;60644;55.858;37.390;2023-04-23T13:05:03;5.07;;;1.70;;
72601;SDS011;60644;55.858;37.390;2023-04-23T13:07:32;4.20;;;1.08;;
72601;SDS011;60644;55.858;37.390;2023-04-23T13:10:01;4.10;;;1.20;;
72601;SDS011;60644;55.858;37.390;2023-04-23T13:12:32;6.00;;;2.33;;
72601;SDS011;60644;55.858;37.390;2023-04-23T13:15:00;7.85;;;2.05;;
72601;SDS011;60644;55.858;37.390;2023-04-23T13:17:27;8.93;;;3.00;;
72601;SDS011;60644;55.858;37.390;2023-04-23T13:19:53;6.32;;;1.73;;
72601;SDS011;60644;55.858;37.390;2023-04-23T13:22:20;5.43;;;1.98;;
72601;SDS011;60644;55.858;37.390;2023-04-23T13:24:46;9.73;;;2.13;;
72601;SDS011;60644;55.858;37.390;2023-04-23T13:27:12;6.50;;;1.42;;
72601;SDS011;60644;55.858;37.390;2023-04-23T13:29:37;5.60;;;1.40;;
72601;SDS011;60644;55.858;37.390;2023-04-23T13:32:04;4.95;;;1.33;;
72601;SDS011;60644;55.858;37.390;2023-04-23T13:34:30;4.60;;;1.10;;
72601;SDS011;60644;55.858;37.390;2023-04-23T13:36:56;4.68;;;1.30;;
72601;SDS011;60644;55.858;37.390;2023-04-23T13:39:23;6.63;;;1.77;;
72601;SDS011;60644;55.858;37.390;2023-04-23T13:41:48;5.78;;;1.67;;
72601;SDS011;60644;55.858;37.390;2023-04-23T13:44:17;5.90;;;1.50;;
72601;SDS011;60644;55.858;37.390;2023-04-23T13:46:43;5.28;;;1.48;;
72601;SDS011;60644;55.858;37.390;2023-04-23T13:52:01;6.75;;;1.88;;
72601;SDS011;60644;55.858;37.390;2023-04-23T13:54:31;5.50;;;1.17;;
72601;SDS011;60644;55.858;37.390;2023-04-23T13:56:57;5.07;;;1.48;;
72601;SDS011;60644;55.858;37.390;2023-04-23T13:59:23;7.20;;;2.20;;
72601;SDS011;60644;55.858;37.390;2023-04-23T14:01:50;3.72;;;0.90;;
72601;SDS011;60644;55.858;37.390;2023-04-23T14:04:17;5.35;;;1.20;;
72601;SDS011;60644;55.858;37.390;2023-04-23T14:06:43;7.20;;;2.33;;
72601;SDS011;60644;55.858;37.390;2023-04-23T14:09:09;9.57;;;3.95;;
72601;SDS011;60644;55.858;37.390;2023-04-23T14:11:35;7.70;;;2.20;;
72601;SDS011;60644;55.858;37.390;2023-04-23T14:14:00;10.45;;;3.33;;
72601;SDS011;60644;55.858;37.390;2023-04-23T14:16:29;5.88;;;1.60;;
72601;SDS011;60644;55.858;37.390;2023-04-23T14:18:55;8.20;;;1.70;;
72601;SDS011;60644;55.858;37.390;2023-04-23T14:21:24;10.40;;;4.40;;
72601;SDS011;60644;55.858;37.390;2023-04-23T14:23:55;8.52;;;3.17;;
72601;SDS011;60644;55.858;37.390;2023-04-23T14:29:00;7.03;;;1.37;;
72601;SDS011;60644;55.858;37.390;2023-04-23T14:31:27;5.30;;;1.27;;
72601;SDS011;60644;55.858;37.390;2023-04-23T14:33:55;4.78;;;1.63;;
72601;SDS011;60644;55.858;37.390;2023-04-23T14:36:23;6.88;;;1.60;;
72601;SDS011;60644;55.858;37.390;2023-04-23T14:38:49;4.20;;;1.30;;